Waldenburg, Switzerland

11:36 AM CEST am 29. Mai 2017 (GMT +0200)
Waldenburg | | Change Station

Höhe 1748 ft 47.38 °N, 7.75 °E | Updated 5 minutes ago

Heiter
Heiter
78.6 °F
gefühlte 79 °F
N
0.0
Wind Wechselnd Wind aus Nord-Nordwest

Heute
Max. -- | schwach -- °F
--% Regenrisiko
Gestern
Max. -- | schwach -- °F
Precip. -- inch
Druck 30.01 inch
Sichtweite 6.2 Meilen
Wolken Few 5300 ft
Teils Wolkig 26000 ft
Hitzeindex 79 °F
Taupunkt 57 °F
Feuchtigkeit 47%
Regen Nicht verfügbar..
Schneehöhe Nicht verfügbar..
5:38 AM 9:15 PM
Erstes Viertel, 18% visible
METAR LFSB 290930Z 25004KT 170V320 9999 FEW053 SCT260 28/12 Q1016 NOSIG
Druck 30.01 inch
Sichtweite 6.2 Meilen
Wolken Few 5300 ft
Teils Wolkig 26000 ft
Hitzeindex 79 °F
Taupunkt 57 °F
Feuchtigkeit 47%
Regen Nicht verfügbar..
Schneehöhe Nicht verfügbar..
5:38 AM 9:15 PM
Erstes Viertel, 18% visible
METAR LFSB 290930Z 25004KT 170V320 9999 FEW053 SCT260 28/12 Q1016 NOSIG

Get Severe Weather Alerts

Thanks for signing up!

Be on the lookout for a verification email in your inbox.

You'll start receiving the daily forecast at 6 AM.

×

10-Day Weather Forecast

×

Almanac

Astronomie

May. 29, 2017 Aufgang Untergang
Genaue Zeit
Bürgerliche Dämmerung
Nautische Dämmerung
Astronomische Dämmerung
Mond
Länge des sichtbaren Lichts
Tageslänge
Tomorrow will be .
, % of the Moon is Illuminated

Heutige Rekorde

Country Highs Country Lows

Community

WunderPhotos

Category 6

Welcome to Category 6. This is the collective home for Weather Underground's featured writeups by Dr. Jeff Masters (right), Bob Henson (left), Chris Burt, and other regular contributors.

Nearby

Luftqualität

  Luftqualität LQ Index Schadstoff
Not available.

Schneehöhe

Station Depth Höhe

Erdbebenaktivität

Stadt Distance Mag. Time & Date
Minimum magnitude displayed is 2.5.

küstennahe Wassertemperaturen

Ort Temperatur

Stations

Wetterstationen in der Umgebung

Stationsstandort Temp. Windchill Taupunkt Feuchtigkeit Wind Precip. Höhe Aktualisiert Art